Time;durP1;ratioP1;P1;durP2;ratioP2;P2;SDS_P1;SDS_P2;PMS_P1;PMS_P2;Temp;Humidity;BMP_temperature;BMP_pressure;BME280_temperature;BME280_humidity;BME280_pressure;Samples;Min_cycle;Max_cycle;Signal;HPM_P1;HPM_P2
2021/09/08 00:01:29;;;;;;;11.97;6.42;;;;;;;11.65;57.76;101681.13;1748571;81;21110;-59
2021/09/08 00:03:57;;;;;;;10.65;6.45;;;;;;;11.62;57.86;101681.32;1739610;81;21364;-59
2021/09/08 00:06:24;;;;;;;14.35;6.17;;;;;;;11.60;57.79;101684.53;1751426;80;21066;-60
2021/09/08 00:08:50;;;;;;;13.75;6.75;;;;;;;11.56;57.89;101681.70;1741105;80;21228;-60
2021/09/08 00:11:19;;;;;;;11.95;7.17;;;;;;;11.52;58.16;101687.64;1764217;80;21610;-59
2021/09/08 00:13:49;;;;;;;11.85;6.60;;;;;;;11.49;58.30;101682.55;1755776;80;20991;-59
2021/09/08 00:16:17;;;;;;;13.68;5.90;;;;;;;11.48;58.17;101690.11;1681414;83;22399;-59
2021/09/08 00:18:46;;;;;;;13.85;6.53;;;;;;;11.46;58.26;101700.36;1746753;80;21160;-59
2021/09/08 00:21:13;;;;;;;16.05;7.58;;;;;;;11.41;58.36;101683.51;1759248;80;21083;-59
2021/09/08 00:23:40;;;;;;;14.25;7.03;;;;;;;11.40;58.54;101700.28;1736205;80;21055;-59
2021/09/08 00:26:07;;;;;;;14.65;6.45;;;;;;;11.40;59.01;101698.97;1758672;80;21038;-60
2021/09/08 00:28:36;;;;;;;12.85;5.70;;;;;;;11.45;59.34;101700.00;1737119;80;21146;-59
2021/09/08 00:31:04;;;;;;;11.85;6.33;;;;;;;11.56;60.08;101704.11;1760555;80;21114;-59
2021/09/08 00:33:33;;;;;;;10.90;5.47;;;;;;;11.66;60.38;101701.73;1755093;80;21531;-59
2021/09/08 00:36:03;;;;;;;13.20;6.10;;;;;;;11.75;60.35;101711.72;1758273;80;21016;-59
2021/09/08 00:38:30;;;;;;;12.70;5.78;;;;;;;11.83;59.83;101708.09;1750865;80;21061;-60
2021/09/08 00:40:58;;;;;;;12.40;5.80;;;;;;;11.87;59.24;101707.44;1753983;80;21108;-60
2021/09/08 00:43:25;;;;;;;13.55;6.97;;;;;;;11.88;59.14;101707.80;1758089;79;21117;-60
2021/09/08 00:45:56;;;;;;;11.20;6.45;;;;;;;11.86;58.93;101706.58;1754998;80;22169;-60
2021/09/08 00:48:24;;;;;;;11.73;6.25;;;;;;;11.83;58.53;101701.49;1700945;82;21082;-60
2021/09/08 00:50:54;;;;;;;9.73;5.15;;;;;;;11.78;58.34;101700.95;1756424;80;21086;-60
2021/09/08 00:53:21;;;;;;;14.03;6.03;;;;;;;11.71;58.50;101701.81;1749507;80;22552;-60
2021/09/08 00:55:50;;;;;;;11.40;5.80;;;;;;;11.66;58.73;101706.53;1750917;80;21054;-60
2021/09/08 00:58:19;;;;;;;11.08;5.97;;;;;;;11.62;58.83;101709.00;1751404;80;21098;-59
2021/09/08 01:00:48;;;;;;;11.43;5.92;;;;;;;11.57;58.58;101704.49;1751626;80;21115;-59
2021/09/08 01:03:15;;;;;;;9.73;5.62;;;;;;;11.51;58.50;101704.39;1750311;80;21039;-59
2021/09/08 01:05:46;;;;;;;12.63;6.22;;;;;;;11.47;58.16;101708.17;1729635;81;21608;-60
2021/09/08 01:08:17;;;;;;;11.48;6.20;;;;;;;11.43;57.92;101704.50;1764796;80;21069;-60
2021/09/08 01:10:46;;;;;;;12.90;5.85;;;;;;;11.38;57.91;101703.49;1759099;80;21051;-60
2021/09/08 01:13:15;;;;;;;10.78;5.90;;;;;;;11.33;58.01;101703.77;1761967;80;21550;-60
2021/09/08 01:16:05;;;;;;;10.38;5.92;;;;;;;11.28;58.14;101704.53;1763589;80;21130;-59
2021/09/08 01:18:33;;;;;;;11.68;5.83;;;;;;;11.24;58.05;101703.01;1758673;80;21510;-59
2021/09/08 01:21:01;;;;;;;11.63;6.00;;;;;;;11.19;58.22;101707.72;1734248;80;21063;-59
2021/09/08 01:23:28;;;;;;;12.65;6.10;;;;;;;11.16;58.28;101707.90;1761151;80;21542;-59
2021/09/08 01:25:56;;;;;;;11.85;5.87;;;;;;;11.12;58.22;101699.82;1764089;80;21047;-59
2021/09/08 01:28:26;;;;;;;9.53;4.85;;;;;;;11.09;58.41;101700.84;1759120;80;21074;-59
2021/09/08 01:30:55;;;;;;;11.80;5.28;;;;;;;11.07;58.35;101692.19;1761432;80;21552;-59
2021/09/08 01:33:22;;;;;;;12.53;5.97;;;;;;;11.06;58.44;101697.55;1767896;79;21063;-59
2021/09/08 01:35:48;;;;;;;11.30;5.80;;;;;;;11.03;58.58;101704.32;1764183;80;21526;-59
2021/09/08 01:38:16;;;;;;;13.25;6.25;;;;;;;11.02;58.54;101702.16;1758097;80;21152;-59
2021/09/08 01:40:44;;;;;;;10.58;5.33;;;;;;;11.01;58.49;101698.30;1739698;80;21077;-60
2021/09/08 01:43:10;;;;;;;11.48;5.87;;;;;;;11.00;58.29;101696.16;1735404;80;21343;-60
2021/09/08 01:45:41;;;;;;;12.07;5.97;;;;;;;10.99;58.38;101695.77;1728290;81;21625;-60
2021/09/08 01:48:08;;;;;;;10.15;5.37;;;;;;;10.99;58.41;101692.30;1761898;80;21053;-60
2021/09/08 01:50:37;;;;;;;12.93;5.55;;;;;;;10.99;58.31;101687.86;1765313;80;21070;-60
2021/09/08 01:53:04;;;;;;;12.68;5.67;;;;;;;10.99;58.22;101688.34;1745003;80;21071;-60
2021/09/08 01:55:32;;;;;;;13.30;6.17;;;;;;;10.96;58.16;101686.28;1763410;80;21008;-60
2021/09/08 01:57:59;;;;;;;10.63;5.60;;;;;;;10.95;58.15;101687.20;1760671;80;21082;-60
2021/09/08 02:00:29;;;;;;;11.55;5.97;;;;;;;10.94;58.08;101682.90;1762533;80;21534;-60
2021/09/08 02:02:57;;;;;;;14.10;6.05;;;;;;;10.93;57.99;101685.14;1741637;80;21542;-60
2021/09/08 02:05:23;;;;;;;9.63;4.65;;;;;;;10.91;58.09;101680.89;1762669;80;21467;-60
2021/09/08 02:07:53;;;;;;;10.95;4.90;;;;;;;10.93;58.07;101677.24;1769209;80;21097;-60
2021/09/08 02:10:21;;;;;;;8.75;4.47;;;;;;;11.02;57.75;101674.51;1727830;82;21357;-60
2021/09/08 02:12:49;;;;;;;13.32;5.33;;;;;;;11.07;57.55;101674.23;1757818;80;21400;-60
2021/09/08 02:15:16;;;;;;;9.73;5.30;;;;;;;11.12;57.51;101680.06;1737166;80;21082;-60
2021/09/08 02:17:43;;;;;;;13.03;5.30;;;;;;;11.14;57.55;101681.64;1761158;80;21051;-60
2021/09/08 02:20:13;;;;;;;10.55;5.42;;;;;;;11.16;57.58;101677.60;1761677;80;21550;-60
2021/09/08 02:22:42;;;;;;;9.65;5.40;;;;;;;11.18;57.31;101681.46;1735634;80;21184;-60
2021/09/08 02:25:13;;;;;;;9.48;5.05;;;;;;;11.17;57.14;101688.53;1760540;80;21075;-60
2021/09/08 02:27:41;;;;;;;9.78;5.15;;;;;;;11.16;57.23;101682.88;1768306;80;21838;-60
2021/09/08 02:30:09;;;;;;;9.95;4.58;;;;;;;11.16;57.34;101682.88;1759718;80;21098;-60
2021/09/08 02:32:36;;;;;;;11.83;5.47;;;;;;;11.17;57.53;101683.26;1758572;80;21119;-60
2021/09/08 02:35:04;;;;;;;9.45;5.20;;;;;;;11.14;57.52;101686.08;1757301;79;22549;-60
2021/09/08 02:37:30;;;;;;;9.28;4.85;;;;;;;11.12;57.90;101682.70;1759035;80;21106;-60
2021/09/08 02:39:57;;;;;;;10.93;5.08;;;;;;;11.11;58.08;101683.18;1761142;79;21735;-60
2021/09/08 02:42:25;;;;;;;11.60;5.25;;;;;;;11.08;57.94;101688.63;1764861;80;21050;-60
2021/09/08 02:44:52;;;;;;;11.12;6.00;;;;;;;11.05;57.93;101690.61;1768293;80;21129;-60
2021/09/08 02:47:20;;;;;;;11.45;5.28;;;;;;;11.02;57.93;101689.00;1763126;80;21255;-60
2021/09/08 02:49:49;;;;;;;12.43;5.22;;;;;;;11.00;57.97;101686.09;1695220;82;21527;-60
2021/09/08 02:52:17;;;;;;;10.05;5.47;;;;;;;10.97;57.99;101689.27;1758906;80;21050;-60
2021/09/08 02:54:45;;;;;;;9.15;4.87;;;;;;;10.97;58.18;101692.38;1733242;80;21112;-60
2021/09/08 02:57:11;;;;;;;9.38;4.92;;;;;;;10.96;58.23;101688.05;1758058;79;21868;-60
2021/09/08 02:59:40;;;;;;;9.88;4.95;;;;;;;10.96;58.23;101691.55;1735901;80;21041;-60
2021/09/08 03:02:07;;;;;;;12.03;5.33;;;;;;;10.96;58.14;101689.36;1762657;79;21723;-60
2021/09/08 03:04:34;;;;;;;11.08;5.50;;;;;;;10.97;58.59;101689.27;1757789;79;21113;-60
2021/09/08 03:07:01;;;;;;;8.85;4.85;;;;;;;11.02;58.69;101686.84;1758655;80;22409;-60
2021/09/08 03:09:28;;;;;;;9.18;4.45;;;;;;;11.12;58.46;101692.76;1762641;79;21630;-59
2021/09/08 03:11:58;;;;;;;7.78;4.50;;;;;;;11.21;58.58;101692.66;1761760;80;21062;-60
2021/09/08 03:14:26;;;;;;;9.05;4.83;;;;;;;11.30;58.83;101692.58;1764887;80;21022;-60
2021/09/08 03:16:53;;;;;;;8.53;4.37;;;;;;;11.32;58.70;101692.84;1745014;80;20947;-61
2021/09/08 03:19:19;;;;;;;9.98;4.67;;;;;;;11.35;58.26;101687.87;1763957;80;21144;-61
2021/09/08 03:21:47;;;;;;;12.37;4.92;;;;;;;11.37;57.91;101678.55;1761016;80;21667;-61
2021/09/08 03:24:20;;;;;;;10.80;4.83;;;;;;;11.40;57.76;101682.28;1760022;79;21732;-60
2021/09/08 03:26:49;;;;;;;9.58;4.72;;;;;;;11.42;57.80;101683.06;1762888;78;21132;-61
2021/09/08 03:29:16;;;;;;;10.15;4.55;;;;;;;11.42;58.53;101681.26;1743156;80;21093;-60
2021/09/08 03:31:43;;;;;;;10.20;4.50;;;;;;;11.40;58.70;101678.33;1735130;80;21137;-60
2021/09/08 03:34:11;;;;;;;11.57;5.47;;;;;;;11.38;58.27;101675.82;1762052;80;21132;-61
2021/09/08 03:36:39;;;;;;;9.53;4.65;;;;;;;11.37;58.26;101682.02;1739176;80;21050;-61
2021/09/08 03:39:06;;;;;;;8.40;5.15;;;;;;;11.35;58.50;101674.69;1765399;80;21119;-61
2021/09/08 03:41:32;;;;;;;12.05;5.12;;;;;;;11.32;59.22;101684.94;1743958;78;21081;-61
2021/09/08 03:43:59;;;;;;;7.95;4.75;;;;;;;11.32;59.67;101686.73;1742347;80;21144;-61
2021/09/08 03:46:27;;;;;;;9.85;5.12;;;;;;;11.31;59.71;101687.22;1765376;80;21196;-63
2021/09/08 03:48:54;;;;;;;8.58;4.55;;;;;;;11.36;59.34;101690.02;1761017;78;21065;-62
2021/09/08 03:51:21;;;;;;;10.32;5.10;;;;;;;11.45;59.01;101678.44;1766466;80;21558;-63
2021/09/08 03:53:47;;;;;;;12.03;5.03;;;;;;;11.55;58.54;101680.47;1742928;80;21109;-64
2021/09/08 03:56:14;;;;;;;10.53;4.62;;;;;;;11.62;58.15;101679.16;1731713;80;21118;-60
2021/09/08 03:58:42;;;;;;;11.20;4.78;;;;;;;11.64;57.91;101682.06;1766100;80;22859;-60
2021/09/08 04:01:09;;;;;;;10.58;5.33;;;;;;;11.68;57.73;101684.89;1741264;80;21117;-60
2021/09/08 04:03:35;;;;;;;10.15;4.92;;;;;;;11.71;57.59;101685.15;1766356;80;21090;-60
2021/09/08 04:06:03;;;;;;;8.58;4.45;;;;;;;11.76;57.49;101680.91;1777785;80;21608;-61
2021/09/08 04:08:30;;;;;;;8.43;4.47;;;;;;;11.82;57.52;101689.27;1740188;80;21103;-60
2021/09/08 04:10:59;;;;;;;10.05;5.10;;;;;;;11.85;57.80;101689.53;1749730;80;21554;-61
2021/09/08 04:13:25;;;;;;;10.05;4.72;;;;;;;11.90;57.84;101694.91;1750621;80;21686;-61
2021/09/08 04:15:54;;;;;;;8.28;4.58;;;;;;;11.94;57.60;101688.98;1755619;80;21093;-62
2021/09/08 04:18:20;;;;;;;12.65;5.37;;;;;;;12.02;57.94;101699.88;1752836;79;21058;-62
2021/09/08 04:20:46;;;;;;;12.28;4.67;;;;;;;12.07;57.30;101689.88;1762010;80;22270;-62
2021/09/08 04:23:13;;;;;;;8.35;4.62;;;;;;;12.15;57.01;101686.72;1749918;79;22422;-62
2021/09/08 04:25:40;;;;;;;9.50;4.97;;;;;;;12.21;57.21;101690.77;1759373;80;21118;-62
2021/09/08 04:28:08;;;;;;;9.25;4.75;;;;;;;12.26;57.01;101689.50;1756496;80;21083;-61
2021/09/08 04:30:35;;;;;;;8.83;4.75;;;;;;;12.33;56.97;101691.73;1753672;80;21510;-61
2021/09/08 04:33:01;;;;;;;7.85;4.03;;;;;;;12.38;57.04;101686.52;1758960;80;21126;-60
2021/09/08 04:35:27;;;;;;;9.08;5.25;;;;;;;12.45;56.79;101686.47;1758554;80;21151;-61
2021/09/08 04:37:54;;;;;;;9.03;5.03;;;;;;;12.53;56.88;101689.08;1760350;80;21684;-61
2021/09/08 04:40:20;;;;;;;10.98;4.67;;;;;;;12.58;56.75;101686.98;1750841;80;21089;-62
2021/09/08 04:42:47;;;;;;;9.13;4.80;;;;;;;12.64;56.48;101690.05;1751294;80;21711;-61
2021/09/08 04:45:14;;;;;;;11.55;5.12;;;;;;;12.69;56.02;101692.34;1755785;80;21083;-63
2021/09/08 04:47:41;;;;;;;9.18;5.03;;;;;;;12.72;56.05;101689.99;1757015;80;21148;-62
2021/09/08 04:50:09;;;;;;;10.40;5.45;;;;;;;12.79;56.16;101692.58;1754813;80;21379;-62
2021/09/08 04:52:36;;;;;;;9.10;4.92;;;;;;;12.83;55.61;101690.95;1752345;80;21121;-62
2021/09/08 04:55:06;;;;;;;12.82;4.60;;;;;;;12.87;55.14;101682.33;1757100;80;21114;-58
2021/09/08 04:57:34;;;;;;;8.78;4.47;;;;;;;12.91;55.15;101681.64;1756118;80;22108;-61
2021/09/08 05:00:01;;;;;;;10.30;5.37;;;;;;;12.96;54.32;101684.80;1755243;80;21135;-62
2021/09/08 05:02:27;;;;;;;6.90;3.77;;;;;;;13.00;54.46;101683.66;1755151;80;21087;-61
2021/09/08 05:04:54;;;;;;;7.85;4.17;;;;;;;13.04;54.33;101685.61;1757576;80;21098;-61
2021/09/08 05:07:20;;;;;;;9.33;4.97;;;;;;;13.08;53.62;101686.61;1740516;80;21645;-61
2021/09/08 05:09:47;;;;;;;9.53;4.58;;;;;;;13.14;53.06;101686.65;1737449;80;21109;-62
2021/09/08 05:12:13;;;;;;;9.70;4.40;;;;;;;13.19;52.95;101685.36;1756666;80;21812;-62
2021/09/08 05:14:40;;;;;;;8.95;4.15;;;;;;;13.28;52.82;101686.98;1735241;80;21066;-61
2021/09/08 05:17:07;;;;;;;9.95;4.47;;;;;;;13.34;52.50;101688.75;1757475;79;21116;-60
2021/09/08 05:19:34;;;;;;;9.23;4.58;;;;;;;13.39;52.27;101688.44;1753562;80;21558;-59
2021/09/08 05:22:01;;;;;;;10.32;5.17;;;;;;;13.46;52.80;101687.03;1761394;80;21022;-60
2021/09/08 05:24:28;;;;;;;8.70;4.90;;;;;;;13.53;52.28;101681.70;1738259;80;21026;-60
2021/09/08 05:26:56;;;;;;;9.85;4.75;;;;;;;13.59;52.47;101675.59;1754766;80;21070;-61
2021/09/08 05:29:22;;;;;;;11.57;4.67;;;;;;;13.67;52.13;101672.76;1758297;80;21121;-62
2021/09/08 05:31:48;;;;;;;12.63;4.58;;;;;;;13.73;52.18;101670.13;1680505;84;21120;-63
2021/09/08 05:34:15;;;;;;;9.43;4.37;;;;;;;13.79;51.84;101663.56;1729202;80;22523;-62
2021/09/08 05:36:42;;;;;;;12.03;4.35;;;;;;;13.85;51.35;101663.97;1749657;80;21137;-64
2021/09/08 05:39:08;;;;;;;11.12;4.58;;;;;;;13.89;51.54;101661.45;1752604;80;21570;-63
2021/09/08 05:41:34;;;;;;;11.03;4.05;;;;;;;13.98;51.76;101655.95;1729819;80;21057;-60
2021/09/08 05:44:01;;;;;;;9.63;4.55;;;;;;;14.05;51.27;101657.17;1763534;80;21505;-63
2021/09/08 05:46:34;;;;;;;10.70;4.70;;;;;;;14.13;51.04;101661.90;1742974;80;21128;-61
2021/09/08 05:49:01;;;;;;;9.55;4.40;;;;;;;14.19;50.75;101655.30;1754592;80;23007;-63
2021/09/08 05:51:28;;;;;;;12.88;4.53;;;;;;;14.27;50.32;101648.94;1754083;80;21056;-63
2021/09/08 05:53:57;;;;;;;23.35;6.50;;;;;;;14.31;49.51;101649.92;1756862;80;21530;-62
2021/09/08 05:56:23;;;;;;;10.95;4.37;;;;;;;14.35;49.46;101648.38;1696979;83;21126;-62
2021/09/08 05:58:51;;;;;;;10.78;4.80;;;;;;;14.40;49.61;101651.52;1765221;80;21057;-60
2021/09/08 06:01:18;;;;;;;14.98;3.85;;;;;;;14.44;49.42;101652.95;1754208;80;22605;-59
2021/09/08 06:03:44;;;;;;;13.00;4.90;;;;;;;14.47;49.41;101650.08;1731193;80;21062;-63
2021/09/08 06:06:11;;;;;;;13.78;4.50;;;;;;;14.52;49.06;101647.09;1740824;80;21118;-61
2021/09/08 06:08:37;;;;;;;12.73;4.80;;;;;;;14.58;49.02;101653.25;1755989;80;21146;-62
2021/09/08 06:11:04;;;;;;;9.43;3.52;;;;;;;14.64;48.91;101655.44;1750860;81;21070;-63
2021/09/08 06:13:30;;;;;;;13.05;4.30;;;;;;;14.68;48.75;101648.95;1760313;81;21130;-62
2021/09/08 06:15:59;;;;;;;11.73;3.83;;;;;;;14.77;48.82;101657.50;1748477;81;21462;-64
2021/09/08 06:18:25;;;;;;;11.80;4.95;;;;;;;14.83;48.55;101655.70;1740350;80;21047;-65
2021/09/08 06:20:53;;;;;;;13.85;4.35;;;;;;;14.91;48.40;101658.23;1748793;80;21318;-65
2021/09/08 06:23:19;;;;;;;11.83;4.50;;;;;;;14.95;48.36;101656.56;1752136;80;21042;-64
2021/09/08 06:25:46;;;;;;;11.85;3.90;;;;;;;14.98;48.49;101656.32;1748287;80;21966;-64
2021/09/08 06:28:13;;;;;;;8.65;3.98;;;;;;;15.01;48.41;101652.11;1748460;81;21082;-61
2021/09/08 06:30:39;;;;;;;9.75;3.67;;;;;;;15.07;48.51;101654.75;1744016;80;21083;-64
2021/09/08 06:33:06;;;;;;;9.68;3.83;;;;;;;15.12;48.53;101646.44;1752150;80;21707;-61
2021/09/08 06:35:34;;;;;;;7.72;3.42;;;;;;;15.17;48.67;101646.42;1727945;81;21166;-62
2021/09/08 06:38:00;;;;;;;7.22;3.70;;;;;;;15.25;48.42;101645.83;1750268;81;21071;-60
2021/09/08 06:40:27;;;;;;;7.95;3.20;;;;;;;15.33;48.55;101631.94;1735235;80;21094;-63
2021/09/08 06:42:55;;;;;;;7.65;3.55;;;;;;;15.43;48.24;101638.18;1756036;81;21067;-62
2021/09/08 06:45:22;;;;;;;7.72;3.12;;;;;;;15.54;47.96;101638.16;1756114;81;21150;-62
2021/09/08 06:47:52;;;;;;;11.35;3.75;;;;;;;15.65;47.80;101634.65;1721938;81;21145;-63
2021/09/08 06:50:23;;;;;;;7.50;3.15;;;;;;;15.77;47.73;101634.16;1749018;81;21076;-61
2021/09/08 06:52:50;;;;;;;7.33;3.45;;;;;;;15.89;47.95;101632.30;1743712;80;21074;-60
2021/09/08 06:55:17;;;;;;;8.83;3.20;;;;;;;16.01;47.71;101629.11;1755852;81;21447;-60
2021/09/08 06:57:44;;;;;;;6.87;3.20;;;;;;;16.14;47.77;101630.61;1753346;81;21020;-61
2021/09/08 07:00:13;;;;;;;11.60;5.25;;;;;;;16.28;47.75;101633.92;1753347;80;21086;-63
2021/09/08 07:02:39;;;;;;;8.20;3.37;;;;;;;16.38;48.12;101630.00;1745680;80;21059;-61
2021/09/08 07:05:08;;;;;;;10.30;3.67;;;;;;;16.49;47.94;101629.44;1757727;81;21086;-60
2021/09/08 07:07:35;;;;;;;11.50;3.27;;;;;;;16.61;47.19;101631.53;1756100;80;21117;-59
2021/09/08 07:10:03;;;;;;;8.13;3.70;;;;;;;16.70;47.37;101629.89;1734570;81;21079;-58
2021/09/08 07:12:32;;;;;;;6.22;3.00;;;;;;;16.81;47.44;101631.14;1766752;80;21057;-60
2021/09/08 07:14:59;;;;;;;8.55;3.25;;;;;;;16.94;47.37;101630.09;1760553;80;21191;-60
2021/09/08 07:17:25;;;;;;;8.88;3.77;;;;;;;17.03;46.38;101624.82;1761103;80;22370;-59
2021/09/08 07:19:52;;;;;;;7.00;3.12;;;;;;;17.14;46.10;101630.52;1762554;80;21050;-60
2021/09/08 07:22:18;;;;;;;6.87;3.33;;;;;;;17.19;45.66;101637.59;1761175;80;22208;-60
2021/09/08 07:24:44;;;;;;;10.18;3.92;;;;;;;17.26;45.63;101629.91;1752852;80;21100;-61
2021/09/08 07:27:11;;;;;;;8.25;3.47;;;;;;;17.32;45.54;101634.70;1761453;79;21113;-58
2021/09/08 07:29:38;;;;;;;7.30;2.83;;;;;;;17.38;45.37;101634.16;1734624;80;21062;-59
2021/09/08 07:32:07;;;;;;;9.45;3.35;;;;;;;17.43;45.14;101628.41;1764200;80;21387;-59
2021/09/08 07:34:34;;;;;;;6.40;2.50;;;;;;;17.49;45.35;101633.19;1763066;80;21053;-60
2021/09/08 07:37:00;;;;;;;6.05;3.08;;;;;;;17.56;45.10;101647.63;1756680;80;21050;-58
2021/09/08 07:39:28;;;;;;;6.97;3.50;;;;;;;17.63;45.24;101634.60;1764986;79;21337;-58
2021/09/08 07:41:56;;;;;;;8.70;3.60;;;;;;;17.73;45.21;101639.94;1747425;80;21071;-59
2021/09/08 07:44:22;;;;;;;8.68;3.02;;;;;;;17.80;45.11;101624.61;1741868;80;21081;-58
2021/09/08 07:46:49;;;;;;;7.87;2.92;;;;;;;17.90;44.90;101636.60;1762344;80;21102;-59
2021/09/08 07:49:16;;;;;;;7.05;3.05;;;;;;;18.00;44.92;101637.47;1771211;80;21464;-59
2021/09/08 07:51:43;;;;;;;13.75;4.00;;;;;;;18.09;44.57;101629.59;1765251;79;21190;-61
2021/09/08 07:54:10;;;;;;;8.68;3.58;;;;;;;18.18;44.72;101628.25;1762703;79;21375;-63
2021/09/08 07:56:36;;;;;;;8.13;3.02;;;;;;;18.30;44.84;101631.59;1763181;80;21059;-57
2021/09/08 07:59:03;;;;;;;7.53;2.83;;;;;;;18.44;43.63;101632.12;1763464;80;21058;-57
2021/09/08 08:01:32;;;;;;;7.03;3.50;;;;;;;18.53;43.06;101621.45;1766230;79;21517;-58
2021/09/08 08:03:59;;;;;;;9.08;2.70;;;;;;;18.63;43.58;101622.76;1761140;80;21081;-56
2021/09/08 08:06:25;;;;;;;7.78;3.12;;;;;;;18.73;43.11;101614.73;1745525;80;21545;-57
2021/09/08 08:08:52;;;;;;;9.55;3.27;;;;;;;18.81;42.95;101610.84;1734255;80;21093;-57
2021/09/08 08:11:18;;;;;;;7.28;3.62;;;;;;;18.92;42.75;101612.50;1758160;80;21548;-58
2021/09/08 08:13:47;;;;;;;8.03;3.33;;;;;;;19.03;42.78;101613.64;1762973;80;21096;-56
2021/09/08 08:16:17;;;;;;;6.12;2.65;;;;;;;19.15;42.96;101608.08;1761278;80;21453;-57
2021/09/08 08:18:43;;;;;;;9.48;2.58;;;;;;;19.26;42.32;101606.55;1759501;80;21156;-57
2021/09/08 08:21:09;;;;;;;5.97;2.35;;;;;;;19.34;42.27;101605.31;1759948;80;21515;-58
2021/09/08 08:23:36;;;;;;;9.00;3.00;;;;;;;19.46;41.75;101609.43;1720494;81;21074;-60
2021/09/08 08:26:03;;;;;;;8.68;3.75;;;;;;;19.55;41.38;101602.84;1761753;80;21086;-60
2021/09/08 08:28:30;;;;;;;7.62;3.47;;;;;;;19.62;41.24;101611.94;1756556;80;21115;-58
2021/09/08 08:30:59;;;;;;;6.12;2.77;;;;;;;19.67;41.29;101603.80;1757911;80;21133;-58
2021/09/08 08:33:28;;;;;;;6.67;3.10;;;;;;;19.76;40.92;101603.41;1747454;80;21114;-62
2021/09/08 08:35:55;;;;;;;9.20;2.87;;;;;;;19.84;41.01;101607.48;1757675;80;21518;-61
2021/09/08 08:38:21;;;;;;;7.50;2.92;;;;;;;19.93;40.67;101606.23;1757829;80;21090;-61
2021/09/08 08:40:50;;;;;;;8.83;3.42;;;;;;;20.01;40.04;101601.78;1698634;82;22556;-60
2021/09/08 08:43:16;;;;;;;8.40;3.20;;;;;;;20.07;40.59;101608.33;1736070;80;21046;-61
2021/09/08 08:45:43;;;;;;;11.50;2.80;;;;;;;20.16;40.87;101606.07;1761357;80;21019;-56
2021/09/08 08:48:09;;;;;;;6.90;3.10;;;;;;;20.27;40.41;101618.84;1751938;80;21094;-60
2021/09/08 08:50:36;;;;;;;6.70;2.80;;;;;;;20.34;40.07;101613.20;1762268;80;21090;-57
2021/09/08 08:53:03;;;;;;;7.30;2.80;;;;;;;20.43;39.92;101604.75;1763744;79;21102;-57
2021/09/08 08:55:29;;;;;;;7.40;2.65;;;;;;;20.51;40.22;101601.62;1754842;80;21090;-58
2021/09/08 08:57:58;;;;;;;10.90;3.05;;;;;;;20.62;40.07;101607.69;1760330;80;21530;-58
2021/09/08 09:00:25;;;;;;;9.65;3.05;;;;;;;20.70;39.35;101596.56;1761625;80;21146;-57
2021/09/08 09:02:53;;;;;;;7.05;2.52;;;;;;;20.77;38.35;101595.42;1760383;80;21070;-58
2021/09/08 09:05:41;;;;;;;6.17;2.90;;;;;;;20.83;38.16;101593.94;1761037;79;21966;-58
2021/09/08 09:08:10;;;;;;;7.12;2.87;;;;;;;20.90;38.25;101597.16;1761882;80;21141;-58
2021/09/08 09:10:37;;;;;;;7.10;2.77;;;;;;;20.97;37.79;101598.17;1756906;80;21034;-58
2021/09/08 09:13:05;;;;;;;6.25;2.55;;;;;;;21.05;37.66;101591.20;1730981;81;21058;-58
2021/09/08 09:15:34;;;;;;;8.55;2.80;;;;;;;21.10;37.62;101592.88;1748079;81;21109;-58
2021/09/08 09:18:02;;;;;;;5.22;2.17;;;;;;;21.15;37.75;101587.37;1744665;81;21140;-58
2021/09/08 09:20:30;;;;;;;5.12;2.55;;;;;;;21.23;36.49;101584.38;1753532;81;21110;-58
2021/09/08 09:22:59;;;;;;;6.17;2.95;;;;;;;21.25;37.19;101578.34;1728737;81;21552;-58
2021/09/08 09:25:29;;;;;;;7.00;3.10;;;;;;;21.31;37.72;101576.36;1752318;81;21085;-57
2021/09/08 09:27:58;;;;;;;7.25;3.45;;;;;;;21.40;37.05;101570.51;1752372;80;21633;-57
2021/09/08 09:30:29;;;;;;;13.08;4.28;;;;;;;21.47;36.55;101567.56;1750372;80;21947;-58
2021/09/08 09:32:58;;;;;;;8.58;3.42;;;;;;;21.50;36.19;101566.72;1748003;80;21102;-58
2021/09/08 09:35:27;;;;;;;7.67;3.15;;;;;;;21.54;36.72;101564.55;1749005;81;21062;-58
2021/09/08 09:37:57;;;;;;;5.42;2.55;;;;;;;21.59;36.48;101557.36;1726303;81;21089;-58
2021/09/08 09:40:33;;;;;;;6.33;2.92;;;;;;;21.67;36.66;101562.21;1687151;83;21094;-59
2021/09/08 09:43:09;;;;;;;8.13;2.75;;;;;;;21.76;36.88;101556.86;1727671;81;21119;-59
2021/09/08 09:45:39;;;;;;;14.73;3.95;;;;;;;21.85;35.77;101552.64;1747979;81;21017;-59
2021/09/08 09:48:07;;;;;;;10.32;3.05;;;;;;;21.90;36.04;101548.13;1751456;81;21539;-58
2021/09/08 09:50:34;;;;;;;5.72;2.60;;;;;;;21.94;36.20;101552.16;1751663;80;21055;-58
2021/09/08 09:53:03;;;;;;;6.67;2.72;;;;;;;22.02;35.61;101549.47;1725299;81;21176;-57
2021/09/08 09:55:29;;;;;;;6.80;2.77;;;;;;;22.09;35.45;101541.58;1753306;80;21061;-60
2021/09/08 09:57:56;;;;;;;5.67;2.55;;;;;;;22.16;35.04;101534.52;1755067;79;21762;-58
2021/09/08 10:00:23;;;;;;;5.78;2.75;;;;;;;22.21;35.41;101530.00;1730605;81;21070;-59
2021/09/08 10:02:53;;;;;;;7.33;2.70;;;;;;;22.27;34.91;101521.24;1752071;81;21604;-60
2021/09/08 10:05:19;;;;;;;9.00;2.35;;;;;;;22.31;35.09;101519.08;1718275;81;21098;-57
2021/09/08 10:07:47;;;;;;;8.05;2.92;;;;;;;22.40;34.69;101514.04;1736673;80;21569;-60
2021/09/08 10:10:20;;;;;;;5.65;2.62;;;;;;;22.45;34.62;101509.81;1715011;81;21097;-59
2021/09/08 10:12:58;;;;;;;8.65;3.02;;;;;;;22.51;35.06;101510.12;1711419;81;21118;-58
2021/09/08 10:15:25;;;;;;;5.40;2.58;;;;;;;22.59;34.90;101505.59;1713169;81;21402;-59
2021/09/08 10:17:53;;;;;;;6.92;2.72;;;;;;;22.67;34.51;101502.02;1696340;82;21081;-59
2021/09/08 10:20:24;;;;;;;6.20;2.83;;;;;;;22.70;34.17;101509.72;1693373;82;21143;-60
2021/09/08 10:25:11;;;;;;;6.22;2.77;;;;;;;22.75;33.58;101500.63;1872931;75;22489;-58
2021/09/08 10:27:38;;;;;;;7.17;2.90;;;;;;;22.70;33.71;101492.28;1797157;77;21029;-58
2021/09/08 10:30:08;;;;;;;8.08;2.42;;;;;;;22.72;33.61;101507.69;1838821;77;21556;-59
2021/09/08 10:32:35;;;;;;;6.50;3.50;;;;;;;22.71;33.83;101503.35;1812339;77;21040;-58
2021/09/08 10:35:14;;;;;;;8.18;3.33;;;;;;;22.71;34.25;101496.64;1838224;77;21081;-59
2021/09/08 10:37:50;;;;;;;5.47;2.80;;;;;;;22.77;33.62;101498.60;1832369;77;21047;-58
2021/09/08 10:40:19;;;;;;;7.70;2.60;;;;;;;22.82;34.25;101494.88;1843501;77;21089;-57
2021/09/08 10:42:57;;;;;;;8.03;2.30;;;;;;;22.88;34.25;101492.02;1838448;77;22469;-58
2021/09/08 10:45:26;;;;;;;9.30;3.27;;;;;;;22.95;33.76;101486.78;1810534;77;21034;-64
2021/09/08 10:47:53;;;;;;;11.53;2.75;;;;;;;22.94;34.20;101477.05;1839909;75;21057;-67
2021/09/08 10:50:41;;;;;;;10.50;4.17;;;;;;;22.96;34.39;101479.89;1834760;77;21065;-62
2021/09/08 10:53:28;;;;;;;5.42;2.85;;;;;;;22.99;34.34;101484.87;1808076;77;21062;-63
2021/09/08 10:55:54;;;;;;;10.68;2.87;;;;;;;22.99;34.12;101483.54;1838505;77;23301;-64
2021/09/08 10:58:21;;;;;;;7.53;2.83;;;;;;;22.99;33.85;101474.66;1845324;77;21042;-63
2021/09/08 11:00:49;;;;;;;6.95;2.85;;;;;;;22.96;33.56;101480.38;1841000;77;21053;-63
2021/09/08 11:03:22;;;;;;;5.55;2.75;;;;;;;22.94;33.41;101484.58;1813312;77;21089;-60
2021/09/08 11:05:53;;;;;;;5.50;2.40;;;;;;;22.94;33.47;101481.07;1816104;77;21105;-61
2021/09/08 11:08:24;;;;;;;6.85;3.30;;;;;;;22.91;33.78;101476.88;1819886;77;21182;-59
2021/09/08 11:10:51;;;;;;;11.28;3.12;;;;;;;22.93;34.08;101476.70;1846947;75;21057;-60
2021/09/08 11:13:26;;;;;;;7.20;3.20;;;;;;;22.95;33.96;101472.02;1837441;77;21080;-62
2021/09/08 11:15:53;;;;;;;7.95;3.45;;;;;;;22.99;34.08;101470.63;1839919;77;21691;-62
2021/09/08 11:18:21;;;;;;;8.95;2.85;;;;;;;23.03;33.77;101471.94;1838462;77;21571;-62
2021/09/08 11:20:49;;;;;;;8.38;3.22;;;;;;;23.07;33.74;101484.55;1837213;77;21039;-61
2021/09/08 11:23:15;;;;;;;9.28;3.33;;;;;;;23.08;33.51;101471.44;1789145;77;21606;-62
2021/09/08 11:25:45;;;;;;;6.95;3.25;;;;;;;23.09;33.73;101472.61;1846200;77;20987;-65
2021/09/08 11:28:12;;;;;;;11.63;3.62;;;;;;;23.10;33.65;101470.75;1806806;77;21113;-61